Beechville, Illinois
Current Conditions -  °F | °C
As of 12:54 PM on Friday 21 Nov 2014 (Local Time) from KSET Reporting Station
Broken Clouds Broken Clouds  
Wind Chill: 30°   Ceiling: 4000
Heat Index: 38°   Visibility: 10mi
Dew Point: 19°   Wind: 12mph
Humidity: 47%   Direction: 130°SE
Pressure: 30.35"   Gusts: NA
Location:  39.0922°N, 90.6653°W
Report Text: KSET 211854Z AUTO 13010KT 10SM BKN040 03/M07 A3035 RMK AO2 SLP282 T00331072
Loading
Personal Weather Stations






























Interactive Weather Map New forecast layout! Learn more

10-Day Weather Forecast

Advertisements
Track Severe Weather on mobile